Penang/Bayan Lepas, Malaysia
Current Conditions -  °F | °C
As of 3:30 PM on Friday 31 Oct 2014 (Local Time) from WMKP Reporting Station
Broken Clouds Broken Clouds  
Wind Chill: 90°   Ceiling: 28000
Heat Index: 108°   Visibility: 6mi
Dew Point: 81°   Wind: 9mph
Humidity: 75%   Direction: 280°W
Pressure: 29.71"   Gusts: NA
Location:  5.29°N, 100.28°E
Report Text: WMKP 310730Z 28008KT 210V350 9999 FEW017CB BKN280 32/27 Q1006 NOSIG
Loading
Personal Weather Stations






























Interactive Weather Map
Tropical Storm Tracking
New forecast layout! Learn more

10-Day Weather Forecast

Advertisements
Track Severe Weather on mobile